sensor_id;sensor_type;location;lat;lon;timestamp;temperature;humidity
4795;DHT22;2411;47.060;15.064;2024-01-30T00:00:51;-3.50;1.00
4795;DHT22;2411;47.060;15.064;2024-01-30T00:03:18;-3.50;1.00
4795;DHT22;2411;47.060;15.064;2024-01-30T00:05:45;-3.50;1.00
4795;DHT22;2411;47.060;15.064;2024-01-30T00:08:13;-3.50;1.00
4795;DHT22;2411;47.060;15.064;2024-01-30T00:10:40;-3.50;1.00
4795;DHT22;2411;47.060;15.064;2024-01-30T00:13:07;-3.60;1.00
4795;DHT22;2411;47.060;15.064;2024-01-30T00:15:34;-3.70;1.00
4795;DHT22;2411;47.060;15.064;2024-01-30T00:18:01;-3.80;1.00
4795;DHT22;2411;47.060;15.064;2024-01-30T00:20:29;-3.70;1.00
4795;DHT22;2411;47.060;15.064;2024-01-30T00:22:56;-3.70;1.00
4795;DHT22;2411;47.060;15.064;2024-01-30T00:25:23;-3.70;1.00
4795;DHT22;2411;47.060;15.064;2024-01-30T00:27:50;-3.80;1.00
4795;DHT22;2411;47.060;15.064;2024-01-30T00:30:17;-3.80;1.00
4795;DHT22;2411;47.060;15.064;2024-01-30T00:32:44;-3.80;1.00
4795;DHT22;2411;47.060;15.064;2024-01-30T00:35:11;-3.80;1.00
4795;DHT22;2411;47.060;15.064;2024-01-30T00:37:38;-3.80;1.00
4795;DHT22;2411;47.060;15.064;2024-01-30T00:40:06;-3.80;1.00
4795;DHT22;2411;47.060;15.064;2024-01-30T00:42:33;-3.90;1.00
4795;DHT22;2411;47.060;15.064;2024-01-30T00:45:00;-4.00;1.00
4795;DHT22;2411;47.060;15.064;2024-01-30T00:47:27;-4.00;1.00
4795;DHT22;2411;47.060;15.064;2024-01-30T00:49:55;-3.90;1.00
4795;DHT22;2411;47.060;15.064;2024-01-30T00:52:23;-3.80;1.00
4795;DHT22;2411;47.060;15.064;2024-01-30T00:54:50;-3.80;1.00
4795;DHT22;2411;47.060;15.064;2024-01-30T00:57:17;-3.70;1.00
4795;DHT22;2411;47.060;15.064;2024-01-30T00:59:44;-3.80;1.00
4795;DHT22;2411;47.060;15.064;2024-01-30T01:02:11;-3.80;1.00
4795;DHT22;2411;47.060;15.064;2024-01-30T01:04:38;-3.80;1.00
4795;DHT22;2411;47.060;15.064;2024-01-30T01:07:05;-3.80;1.00
4795;DHT22;2411;47.060;15.064;2024-01-30T01:09:33;-3.80;1.00
4795;DHT22;2411;47.060;15.064;2024-01-30T01:12:01;-3.70;1.00
4795;DHT22;2411;47.060;15.064;2024-01-30T01:14:28;-3.70;1.00
4795;DHT22;2411;47.060;15.064;2024-01-30T01:16:55;-3.80;1.00
4795;DHT22;2411;47.060;15.064;2024-01-30T01:19:22;-3.70;1.00
4795;DHT22;2411;47.060;15.064;2024-01-30T01:21:49;-3.80;1.00
4795;DHT22;2411;47.060;15.064;2024-01-30T01:24:17;-3.80;1.00
4795;DHT22;2411;47.060;15.064;2024-01-30T01:26:44;-3.80;1.00
4795;DHT22;2411;47.060;15.064;2024-01-30T01:29:11;-3.80;1.00
4795;DHT22;2411;47.060;15.064;2024-01-30T01:31:39;-3.70;1.00
4795;DHT22;2411;47.060;15.064;2024-01-30T01:34:11;-3.70;1.00
4795;DHT22;2411;47.060;15.064;2024-01-30T01:36:39;-3.60;1.00
4795;DHT22;2411;47.060;15.064;2024-01-30T01:39:06;-3.50;1.00
4795;DHT22;2411;47.060;15.064;2024-01-30T01:41:33;-3.60;1.00
4795;DHT22;2411;47.060;15.064;2024-01-30T01:44:00;-3.70;1.00
4795;DHT22;2411;47.060;15.064;2024-01-30T01:46:30;-3.90;1.00
4795;DHT22;2411;47.060;15.064;2024-01-30T01:49:00;-4.10;1.00
4795;DHT22;2411;47.060;15.064;2024-01-30T01:51:31;-4.30;1.00
4795;DHT22;2411;47.060;15.064;2024-01-30T01:54:00;-4.30;1.00
4795;DHT22;2411;47.060;15.064;2024-01-30T01:56:29;-4.40;1.00
4795;DHT22;2411;47.060;15.064;2024-01-30T01:59:01;-4.30;1.00
4795;DHT22;2411;47.060;15.064;2024-01-30T02:01:32;-4.30;1.00
4795;DHT22;2411;47.060;15.064;2024-01-30T02:04:00;-4.20;1.00
4795;DHT22;2411;47.060;15.064;2024-01-30T02:06:28;-4.20;1.00
4795;DHT22;2411;47.060;15.064;2024-01-30T02:08:55;-4.20;1.00
4795;DHT22;2411;47.060;15.064;2024-01-30T02:11:23;-4.10;1.00
4795;DHT22;2411;47.060;15.064;2024-01-30T02:13:50;-4.10;1.00
4795;DHT22;2411;47.060;15.064;2024-01-30T02:16:17;-4.20;1.00
4795;DHT22;2411;47.060;15.064;2024-01-30T02:18:44;-4.20;1.00
4795;DHT22;2411;47.060;15.064;2024-01-30T02:21:18;-4.00;1.00
4795;DHT22;2411;47.060;15.064;2024-01-30T02:23:49;-4.10;1.00
4795;DHT22;2411;47.060;15.064;2024-01-30T02:26:17;-3.90;1.00
4795;DHT22;2411;47.060;15.064;2024-01-30T02:28:44;-3.70;1.00
4795;DHT22;2411;47.060;15.064;2024-01-30T02:31:11;-3.70;1.00
4795;DHT22;2411;47.060;15.064;2024-01-30T02:33:38;-3.90;1.00
4795;DHT22;2411;47.060;15.064;2024-01-30T02:36:05;-3.80;1.00
4795;DHT22;2411;47.060;15.064;2024-01-30T02:38:33;-3.40;1.00
4795;DHT22;2411;47.060;15.064;2024-01-30T02:41:00;-3.50;1.00
4795;DHT22;2411;47.060;15.064;2024-01-30T02:43:27;-3.60;1.00
4795;DHT22;2411;47.060;15.064;2024-01-30T02:45:54;-3.80;1.00
4795;DHT22;2411;47.060;15.064;2024-01-30T02:48:21;-3.80;1.00
4795;DHT22;2411;47.060;15.064;2024-01-30T02:50:48;-4.00;1.00
4795;DHT22;2411;47.060;15.064;2024-01-30T02:53:15;-4.00;1.00
4795;DHT22;2411;47.060;15.064;2024-01-30T02:55:42;-4.10;1.00
4795;DHT22;2411;47.060;15.064;2024-01-30T02:58:09;-4.20;1.00
4795;DHT22;2411;47.060;15.064;2024-01-30T03:00:36;-4.30;1.00
4795;DHT22;2411;47.060;15.064;2024-01-30T03:03:04;-4.40;1.00
4795;DHT22;2411;47.060;15.064;2024-01-30T03:05:31;-4.30;1.00
4795;DHT22;2411;47.060;15.064;2024-01-30T03:07:58;-4.30;1.00
4795;DHT22;2411;47.060;15.064;2024-01-30T03:10:25;-4.30;1.00
4795;DHT22;2411;47.060;15.064;2024-01-30T03:12:52;-4.30;1.00
4795;DHT22;2411;47.060;15.064;2024-01-30T03:15:20;-4.20;1.00
4795;DHT22;2411;47.060;15.064;2024-01-30T03:17:47;-4.30;1.00
4795;DHT22;2411;47.060;15.064;2024-01-30T03:20:14;-4.20;1.00
4795;DHT22;2411;47.060;15.064;2024-01-30T03:22:41;-4.30;1.00
4795;DHT22;2411;47.060;15.064;2024-01-30T03:25:08;-4.30;1.00
4795;DHT22;2411;47.060;15.064;2024-01-30T03:27:35;-4.40;1.00
4795;DHT22;2411;47.060;15.064;2024-01-30T03:30:03;-4.40;1.00
4795;DHT22;2411;47.060;15.064;2024-01-30T03:32:30;-4.40;1.00
4795;DHT22;2411;47.060;15.064;2024-01-30T03:34:57;-4.40;1.00
4795;DHT22;2411;47.060;15.064;2024-01-30T03:37:25;-4.30;1.00
4795;DHT22;2411;47.060;15.064;2024-01-30T03:39:52;-4.30;1.00
4795;DHT22;2411;47.060;15.064;2024-01-30T03:42:19;-4.40;1.00
4795;DHT22;2411;47.060;15.064;2024-01-30T03:44:46;-4.40;1.00
4795;DHT22;2411;47.060;15.064;2024-01-30T03:47:14;-4.40;1.00
4795;DHT22;2411;47.060;15.064;2024-01-30T03:49:41;-4.30;1.00
4795;DHT22;2411;47.060;15.064;2024-01-30T03:52:08;-4.30;1.00
4795;DHT22;2411;47.060;15.064;2024-01-30T03:54:36;-4.30;1.00
4795;DHT22;2411;47.060;15.064;2024-01-30T03:57:03;-4.30;1.00
4795;DHT22;2411;47.060;15.064;2024-01-30T03:59:30;-4.20;1.00
4795;DHT22;2411;47.060;15.064;2024-01-30T04:01:57;-4.10;1.00
4795;DHT22;2411;47.060;15.064;2024-01-30T04:04:25;-4.10;1.00
4795;DHT22;2411;47.060;15.064;2024-01-30T04:06:52;-4.10;1.00
4795;DHT22;2411;47.060;15.064;2024-01-30T04:09:19;-4.10;1.00
4795;DHT22;2411;47.060;15.064;2024-01-30T04:11:46;-4.20;1.00
4795;DHT22;2411;47.060;15.064;2024-01-30T04:14:13;-4.10;1.00
4795;DHT22;2411;47.060;15.064;2024-01-30T04:16:40;-3.80;1.00
4795;DHT22;2411;47.060;15.064;2024-01-30T04:19:08;-4.00;1.00
4795;DHT22;2411;47.060;15.064;2024-01-30T04:21:35;-4.20;1.00
4795;DHT22;2411;47.060;15.064;2024-01-30T04:24:02;-4.30;1.00
4795;DHT22;2411;47.060;15.064;2024-01-30T04:26:29;-4.40;1.00
4795;DHT22;2411;47.060;15.064;2024-01-30T04:28:56;-4.50;1.00
4795;DHT22;2411;47.060;15.064;2024-01-30T04:31:23;-4.50;1.00
4795;DHT22;2411;47.060;15.064;2024-01-30T04:33:50;-4.40;1.00
4795;DHT22;2411;47.060;15.064;2024-01-30T04:36:18;-4.40;1.00
4795;DHT22;2411;47.060;15.064;2024-01-30T04:38:45;-4.20;1.00
4795;DHT22;2411;47.060;15.064;2024-01-30T04:41:12;-4.30;1.00
4795;DHT22;2411;47.060;15.064;2024-01-30T04:43:39;-4.40;1.00
4795;DHT22;2411;47.060;15.064;2024-01-30T04:46:06;-4.40;1.00
4795;DHT22;2411;47.060;15.064;2024-01-30T04:48:33;-4.30;1.00
4795;DHT22;2411;47.060;15.064;2024-01-30T04:51:00;-4.30;1.00
4795;DHT22;2411;47.060;15.064;2024-01-30T04:53:30;-4.40;1.00
4795;DHT22;2411;47.060;15.064;2024-01-30T04:55:58;-4.40;1.00
4795;DHT22;2411;47.060;15.064;2024-01-30T04:58:25;-4.40;1.00
4795;DHT22;2411;47.060;15.064;2024-01-30T05:00:52;-4.50;1.00
4795;DHT22;2411;47.060;15.064;2024-01-30T05:03:19;-4.50;1.00
4795;DHT22;2411;47.060;15.064;2024-01-30T05:05:47;-4.60;1.00
4795;DHT22;2411;47.060;15.064;2024-01-30T05:08:14;-4.60;1.00
4795;DHT22;2411;47.060;15.064;2024-01-30T05:10:41;-4.80;1.00
4795;DHT22;2411;47.060;15.064;2024-01-30T05:13:08;-4.80;1.00
4795;DHT22;2411;47.060;15.064;2024-01-30T05:15:35;-4.90;1.00
4795;DHT22;2411;47.060;15.064;2024-01-30T05:18:02;-4.90;1.00
4795;DHT22;2411;47.060;15.064;2024-01-30T05:20:30;-4.80;1.00
4795;DHT22;2411;47.060;15.064;2024-01-30T05:22:57;-4.80;1.00
4795;DHT22;2411;47.060;15.064;2024-01-30T05:25:24;-4.80;1.00
4795;DHT22;2411;47.060;15.064;2024-01-30T05:27:51;-4.60;1.00
4795;DHT22;2411;47.060;15.064;2024-01-30T05:30:19;-4.70;1.00
4795;DHT22;2411;47.060;15.064;2024-01-30T05:32:46;-4.60;1.00
4795;DHT22;2411;47.060;15.064;2024-01-30T05:35:13;-4.60;1.00
4795;DHT22;2411;47.060;15.064;2024-01-30T05:37:40;-4.60;1.00
4795;DHT22;2411;47.060;15.064;2024-01-30T05:40:08;-4.60;1.00
4795;DHT22;2411;47.060;15.064;2024-01-30T05:42:35;-4.60;1.00
4795;DHT22;2411;47.060;15.064;2024-01-30T05:45:02;-4.60;1.00
4795;DHT22;2411;47.060;15.064;2024-01-30T05:47:29;-4.60;1.00
4795;DHT22;2411;47.060;15.064;2024-01-30T05:49:56;-4.60;1.00
4795;DHT22;2411;47.060;15.064;2024-01-30T05:52:23;-4.70;1.00
4795;DHT22;2411;47.060;15.064;2024-01-30T05:54:51;-4.80;1.00
4795;DHT22;2411;47.060;15.064;2024-01-30T05:57:18;-4.80;1.00
4795;DHT22;2411;47.060;15.064;2024-01-30T05:59:45;-4.80;1.00
4795;DHT22;2411;47.060;15.064;2024-01-30T06:02:14;-4.90;1.00
4795;DHT22;2411;47.060;15.064;2024-01-30T06:04:41;-4.90;1.00
4795;DHT22;2411;47.060;15.064;2024-01-30T06:07:09;-4.90;1.00
4795;DHT22;2411;47.060;15.064;2024-01-30T06:09:36;-5.00;1.00
4795;DHT22;2411;47.060;15.064;2024-01-30T06:12:04;-5.10;1.00
4795;DHT22;2411;47.060;15.064;2024-01-30T06:14:32;-5.20;1.00
4795;DHT22;2411;47.060;15.064;2024-01-30T06:17:00;-5.10;1.00
4795;DHT22;2411;47.060;15.064;2024-01-30T06:19:27;-5.00;1.00
4795;DHT22;2411;47.060;15.064;2024-01-30T06:21:54;-5.00;1.00
4795;DHT22;2411;47.060;15.064;2024-01-30T06:24:21;-5.00;1.00
4795;DHT22;2411;47.060;15.064;2024-01-30T06:26:49;-4.90;1.00
4795;DHT22;2411;47.060;15.064;2024-01-30T06:29:16;-4.90;1.00
4795;DHT22;2411;47.060;15.064;2024-01-30T06:31:46;-4.90;1.00
4795;DHT22;2411;47.060;15.064;2024-01-30T06:34:13;-4.80;1.00
4795;DHT22;2411;47.060;15.064;2024-01-30T06:36:40;-4.90;1.00
4795;DHT22;2411;47.060;15.064;2024-01-30T06:39:07;-4.70;1.00
4795;DHT22;2411;47.060;15.064;2024-01-30T06:41:34;-4.80;1.00
4795;DHT22;2411;47.060;15.064;2024-01-30T06:44:02;-4.90;1.00
4795;DHT22;2411;47.060;15.064;2024-01-30T06:46:30;-4.80;1.00
4795;DHT22;2411;47.060;15.064;2024-01-30T06:48:58;-4.90;1.00
4795;DHT22;2411;47.060;15.064;2024-01-30T06:51:25;-5.00;1.00
4795;DHT22;2411;47.060;15.064;2024-01-30T06:53:52;-4.90;1.00
4795;DHT22;2411;47.060;15.064;2024-01-30T06:56:19;-4.90;1.00
4795;DHT22;2411;47.060;15.064;2024-01-30T06:58:50;-4.90;1.00
4795;DHT22;2411;47.060;15.064;2024-01-30T07:01:17;-4.90;1.00
4795;DHT22;2411;47.060;15.064;2024-01-30T07:03:45;-4.70;1.00
4795;DHT22;2411;47.060;15.064;2024-01-30T07:06:12;-4.70;1.00
4795;DHT22;2411;47.060;15.064;2024-01-30T07:08:39;-4.60;1.00
4795;DHT22;2411;47.060;15.064;2024-01-30T07:11:06;-4.60;1.00
4795;DHT22;2411;47.060;15.064;2024-01-30T07:13:34;-4.60;1.00
4795;DHT22;2411;47.060;15.064;2024-01-30T07:16:02;-4.50;1.00
4795;DHT22;2411;47.060;15.064;2024-01-30T07:18:29;-4.40;1.00
4795;DHT22;2411;47.060;15.064;2024-01-30T07:20:56;-4.20;1.00
4795;DHT22;2411;47.060;15.064;2024-01-30T07:23:23;-4.00;1.00
4795;DHT22;2411;47.060;15.064;2024-01-30T07:25:50;-3.90;1.00
4795;DHT22;2411;47.060;15.064;2024-01-30T07:28:17;-3.80;1.00
4795;DHT22;2411;47.060;15.064;2024-01-30T07:30:45;-3.70;1.00
4795;DHT22;2411;47.060;15.064;2024-01-30T07:33:12;-3.70;1.00
4795;DHT22;2411;47.060;15.064;2024-01-30T07:35:40;-3.60;1.00
4795;DHT22;2411;47.060;15.064;2024-01-30T07:38:07;-3.60;1.00
4795;DHT22;2411;47.060;15.064;2024-01-30T07:40:34;-3.60;1.00
4795;DHT22;2411;47.060;15.064;2024-01-30T07:43:02;-3.60;1.00
4795;DHT22;2411;47.060;15.064;2024-01-30T07:45:30;-3.60;1.00
4795;DHT22;2411;47.060;15.064;2024-01-30T07:48:00;-3.60;1.00
4795;DHT22;2411;47.060;15.064;2024-01-30T07:50:27;-3.50;1.00
4795;DHT22;2411;47.060;15.064;2024-01-30T07:52:59;-3.50;1.00
4795;DHT22;2411;47.060;15.064;2024-01-30T07:55:48;-3.40;1.00
4795;DHT22;2411;47.060;15.064;2024-01-30T07:58:16;-3.40;1.00
4795;DHT22;2411;47.060;15.064;2024-01-30T08:00:43;-3.30;1.00
4795;DHT22;2411;47.060;15.064;2024-01-30T08:03:10;-3.30;1.00
4795;DHT22;2411;47.060;15.064;2024-01-30T08:05:38;-3.20;1.00
4795;DHT22;2411;47.060;15.064;2024-01-30T08:08:06;-3.10;1.00
4795;DHT22;2411;47.060;15.064;2024-01-30T08:10:33;-3.10;1.00
4795;DHT22;2411;47.060;15.064;2024-01-30T08:13:01;-3.00;1.00
4795;DHT22;2411;47.060;15.064;2024-01-30T08:15:28;-2.90;1.00
4795;DHT22;2411;47.060;15.064;2024-01-30T08:17:55;-2.80;1.00
4795;DHT22;2411;47.060;15.064;2024-01-30T08:20:25;-2.70;1.00
4795;DHT22;2411;47.060;15.064;2024-01-30T08:22:52;-2.60;1.00
4795;DHT22;2411;47.060;15.064;2024-01-30T08:25:20;-2.50;1.00
4795;DHT22;2411;47.060;15.064;2024-01-30T08:27:47;-2.40;1.00
4795;DHT22;2411;47.060;15.064;2024-01-30T08:30:14;-2.40;1.00
4795;DHT22;2411;47.060;15.064;2024-01-30T08:32:41;-2.30;1.00
4795;DHT22;2411;47.060;15.064;2024-01-30T08:35:08;-2.30;1.00
4795;DHT22;2411;47.060;15.064;2024-01-30T08:37:36;-2.10;1.00
4795;DHT22;2411;47.060;15.064;2024-01-30T08:40:07;-2.00;1.00
4795;DHT22;2411;47.060;15.064;2024-01-30T08:42:35;-1.80;1.00
4795;DHT22;2411;47.060;15.064;2024-01-30T08:45:03;-1.70;1.00
4795;DHT22;2411;47.060;15.064;2024-01-30T08:47:31;-1.60;1.00
4795;DHT22;2411;47.060;15.064;2024-01-30T08:50:00;-1.50;1.00
4795;DHT22;2411;47.060;15.064;2024-01-30T08:52:27;-1.40;1.00
4795;DHT22;2411;47.060;15.064;2024-01-30T08:54:55;-1.30;1.00
4795;DHT22;2411;47.060;15.064;2024-01-30T08:57:22;-1.20;1.00
4795;DHT22;2411;47.060;15.064;2024-01-30T08:59:49;-1.20;1.00
4795;DHT22;2411;47.060;15.064;2024-01-30T09:02:16;-1.00;1.00
4795;DHT22;2411;47.060;15.064;2024-01-30T09:04:45;-0.90;1.00
4795;DHT22;2411;47.060;15.064;2024-01-30T09:07:13;-0.80;1.00
4795;DHT22;2411;47.060;15.064;2024-01-30T09:09:41;-0.70;1.00
4795;DHT22;2411;47.060;15.064;2024-01-30T09:12:08;-0.60;1.00
4795;DHT22;2411;47.060;15.064;2024-01-30T09:14:39;-0.50;1.00
4795;DHT22;2411;47.060;15.064;2024-01-30T09:17:08;-0.30;1.00
4795;DHT22;2411;47.060;15.064;2024-01-30T09:19:35;-0.20;1.00
4795;DHT22;2411;47.060;15.064;2024-01-30T09:22:03;-0.10;1.00
4795;DHT22;2411;47.060;15.064;2024-01-30T09:24:30;0.00;1.00
4795;DHT22;2411;47.060;15.064;2024-01-30T09:26:57;0.20;1.00
4795;DHT22;2411;47.060;15.064;2024-01-30T09:29:25;0.30;1.00
4795;DHT22;2411;47.060;15.064;2024-01-30T09:31:52;0.40;1.00
4795;DHT22;2411;47.060;15.064;2024-01-30T09:34:19;0.50;1.00
4795;DHT22;2411;47.060;15.064;2024-01-30T09:36:47;0.60;1.00
4795;DHT22;2411;47.060;15.064;2024-01-30T09:39:14;0.80;1.00
4795;DHT22;2411;47.060;15.064;2024-01-30T09:41:49;0.90;1.00
4795;DHT22;2411;47.060;15.064;2024-01-30T09:44:19;1.10;1.00
4795;DHT22;2411;47.060;15.064;2024-01-30T09:46:47;1.20;1.00
4795;DHT22;2411;47.060;15.064;2024-01-30T09:49:15;1.40;1.00
4795;DHT22;2411;47.060;15.064;2024-01-30T09:51:47;1.50;1.00
4795;DHT22;2411;47.060;15.064;2024-01-30T09:54:15;1.60;1.00
4795;DHT22;2411;47.060;15.064;2024-01-30T09:56:43;1.60;1.00
4795;DHT22;2411;47.060;15.064;2024-01-30T09:59:10;1.70;1.00
4795;DHT22;2411;47.060;15.064;2024-01-30T10:01:38;1.80;1.00
4795;DHT22;2411;47.060;15.064;2024-01-30T10:04:06;1.90;1.00
4795;DHT22;2411;47.060;15.064;2024-01-30T10:06:34;1.90;1.00
4795;DHT22;2411;47.060;15.064;2024-01-30T10:09:01;2.10;1.00
4795;DHT22;2411;47.060;15.064;2024-01-30T10:11:28;2.20;1.00
4795;DHT22;2411;47.060;15.064;2024-01-30T10:13:55;2.30;1.00
4795;DHT22;2411;47.060;15.064;2024-01-30T10:16:23;2.30;1.00
4795;DHT22;2411;47.060;15.064;2024-01-30T10:18:51;2.30;1.00
4795;DHT22;2411;47.060;15.064;2024-01-30T10:21:18;2.40;1.00
4795;DHT22;2411;47.060;15.064;2024-01-30T10:23:45;2.50;1.00
4795;DHT22;2411;47.060;15.064;2024-01-30T10:26:12;2.60;1.00
4795;DHT22;2411;47.060;15.064;2024-01-30T10:28:40;2.60;1.00
4795;DHT22;2411;47.060;15.064;2024-01-30T10:31:07;2.70;1.00
4795;DHT22;2411;47.060;15.064;2024-01-30T10:33:34;2.80;1.00
4795;DHT22;2411;47.060;15.064;2024-01-30T10:36:03;2.90;1.00
4795;DHT22;2411;47.060;15.064;2024-01-30T10:38:32;3.00;1.00
4795;DHT22;2411;47.060;15.064;2024-01-30T10:41:00;3.10;1.00
4795;DHT22;2411;47.060;15.064;2024-01-30T10:43:32;3.10;1.00
4795;DHT22;2411;47.060;15.064;2024-01-30T10:46:15;3.10;1.00
4795;DHT22;2411;47.060;15.064;2024-01-30T10:48:50;3.10;1.00
4795;DHT22;2411;47.060;15.064;2024-01-30T10:51:19;3.20;1.00
4795;DHT22;2411;47.060;15.064;2024-01-30T10:53:49;3.20;1.00
4795;DHT22;2411;47.060;15.064;2024-01-30T10:56:18;3.20;1.00
4795;DHT22;2411;47.060;15.064;2024-01-30T10:58:49;3.40;1.00
4795;DHT22;2411;47.060;15.064;2024-01-30T11:01:20;3.50;1.00
4795;DHT22;2411;47.060;15.064;2024-01-30T11:03:51;3.60;1.00
4795;DHT22;2411;47.060;15.064;2024-01-30T11:06:21;3.60;1.00
4795;DHT22;2411;47.060;15.064;2024-01-30T11:09:05;3.70;1.00
4795;DHT22;2411;47.060;15.064;2024-01-30T11:11:58;3.80;1.00
4795;DHT22;2411;47.060;15.064;2024-01-30T11:14:29;3.90;1.00
4795;DHT22;2411;47.060;15.064;2024-01-30T11:16:58;4.00;1.00
4795;DHT22;2411;47.060;15.064;2024-01-30T11:19:26;4.00;1.00
4795;DHT22;2411;47.060;15.064;2024-01-30T11:21:54;4.10;1.00
4795;DHT22;2411;47.060;15.064;2024-01-30T11:24:24;4.20;1.00
4795;DHT22;2411;47.060;15.064;2024-01-30T11:26:58;4.20;1.00
4795;DHT22;2411;47.060;15.064;2024-01-30T11:29:27;4.20;1.00
4795;DHT22;2411;47.060;15.064;2024-01-30T11:31:56;4.30;1.00
4795;DHT22;2411;47.060;15.064;2024-01-30T11:34:24;4.50;1.00
4795;DHT22;2411;47.060;15.064;2024-01-30T11:36:53;4.60;1.00
4795;DHT22;2411;47.060;15.064;2024-01-30T11:39:31;4.60;1.00
4795;DHT22;2411;47.060;15.064;2024-01-30T11:41:59;4.60;1.00
4795;DHT22;2411;47.060;15.064;2024-01-30T11:44:26;4.70;1.00
4795;DHT22;2411;47.060;15.064;2024-01-30T11:46:53;4.70;1.00
4795;DHT22;2411;47.060;15.064;2024-01-30T11:49:20;4.80;1.00
4795;DHT22;2411;47.060;15.064;2024-01-30T11:51:48;4.90;1.00
4795;DHT22;2411;47.060;15.064;2024-01-30T11:54:16;4.90;1.00
4795;DHT22;2411;47.060;15.064;2024-01-30T11:56:43;5.00;1.00
4795;DHT22;2411;47.060;15.064;2024-01-30T11:59:11;5.10;1.00
4795;DHT22;2411;47.060;15.064;2024-01-30T12:01:38;5.10;1.00
4795;DHT22;2411;47.060;15.064;2024-01-30T12:04:05;5.10;1.00
4795;DHT22;2411;47.060;15.064;2024-01-30T12:06:38;5.20;1.00
4795;DHT22;2411;47.060;15.064;2024-01-30T12:09:05;5.20;1.00
4795;DHT22;2411;47.060;15.064;2024-01-30T12:11:48;5.20;1.00
4795;DHT22;2411;47.060;15.064;2024-01-30T12:14:17;5.30;1.00
4795;DHT22;2411;47.060;15.064;2024-01-30T12:16:48;5.30;1.00
4795;DHT22;2411;47.060;15.064;2024-01-30T12:19:23;5.40;1.00
4795;DHT22;2411;47.060;15.064;2024-01-30T12:21:58;5.50;1.00
4795;DHT22;2411;47.060;15.064;2024-01-30T12:24:29;5.60;1.00
4795;DHT22;2411;47.060;15.064;2024-01-30T12:26:59;5.60;1.00
4795;DHT22;2411;47.060;15.064;2024-01-30T12:29:27;5.60;1.00
4795;DHT22;2411;47.060;15.064;2024-01-30T12:32:00;5.70;1.00
4795;DHT22;2411;47.060;15.064;2024-01-30T12:34:27;5.70;1.00
4795;DHT22;2411;47.060;15.064;2024-01-30T12:36:55;5.70;1.00
4795;DHT22;2411;47.060;15.064;2024-01-30T12:39:22;5.70;1.00
4795;DHT22;2411;47.060;15.064;2024-01-30T12:41:50;5.80;1.00
4795;DHT22;2411;47.060;15.064;2024-01-30T12:44:18;5.90;1.00
4795;DHT22;2411;47.060;15.064;2024-01-30T12:46:47;5.90;1.00
4795;DHT22;2411;47.060;15.064;2024-01-30T12:49:14;5.90;1.00
4795;DHT22;2411;47.060;15.064;2024-01-30T12:51:43;5.90;1.00
4795;DHT22;2411;47.060;15.064;2024-01-30T12:54:10;5.90;1.00
4795;DHT22;2411;47.060;15.064;2024-01-30T12:56:39;5.90;1.00
4795;DHT22;2411;47.060;15.064;2024-01-30T12:59:06;5.90;1.00
4795;DHT22;2411;47.060;15.064;2024-01-30T13:01:33;5.90;1.00
4795;DHT22;2411;47.060;15.064;2024-01-30T13:04:00;5.90;1.00
4795;DHT22;2411;47.060;15.064;2024-01-30T13:06:28;6.10;1.00
4795;DHT22;2411;47.060;15.064;2024-01-30T13:08:55;6.10;1.00
4795;DHT22;2411;47.060;15.064;2024-01-30T13:11:22;6.10;1.00
4795;DHT22;2411;47.060;15.064;2024-01-30T13:13:49;6.10;1.00
4795;DHT22;2411;47.060;15.064;2024-01-30T13:16:17;6.20;1.00
4795;DHT22;2411;47.060;15.064;2024-01-30T13:18:44;6.20;1.00
4795;DHT22;2411;47.060;15.064;2024-01-30T13:21:11;6.10;1.00
4795;DHT22;2411;47.060;15.064;2024-01-30T13:23:38;6.20;1.00
4795;DHT22;2411;47.060;15.064;2024-01-30T13:26:06;6.20;1.00
4795;DHT22;2411;47.060;15.064;2024-01-30T13:28:34;6.20;1.00
4795;DHT22;2411;47.060;15.064;2024-01-30T13:31:01;6.30;1.00
4795;DHT22;2411;47.060;15.064;2024-01-30T13:33:28;6.30;1.00
4795;DHT22;2411;47.060;15.064;2024-01-30T13:35:55;6.20;1.00
4795;DHT22;2411;47.060;15.064;2024-01-30T13:38:22;6.20;1.00
4795;DHT22;2411;47.060;15.064;2024-01-30T13:40:49;6.20;1.00
4795;DHT22;2411;47.060;15.064;2024-01-30T13:43:16;6.20;1.00
4795;DHT22;2411;47.060;15.064;2024-01-30T13:45:44;6.20;1.00
4795;DHT22;2411;47.060;15.064;2024-01-30T13:48:12;6.20;1.00
4795;DHT22;2411;47.060;15.064;2024-01-30T13:50:40;6.20;1.00
4795;DHT22;2411;47.060;15.064;2024-01-30T13:53:07;6.20;1.00
4795;DHT22;2411;47.060;15.064;2024-01-30T13:55:34;6.20;1.00
4795;DHT22;2411;47.060;15.064;2024-01-30T13:58:02;6.20;1.00
4795;DHT22;2411;47.060;15.064;2024-01-30T14:00:29;6.20;1.00
4795;DHT22;2411;47.060;15.064;2024-01-30T14:02:56;6.20;1.00
4795;DHT22;2411;47.060;15.064;2024-01-30T14:05:25;6.10;1.00
4795;DHT22;2411;47.060;15.064;2024-01-30T14:07:53;6.10;1.00
4795;DHT22;2411;47.060;15.064;2024-01-30T14:10:21;6.10;1.00
4795;DHT22;2411;47.060;15.064;2024-01-30T14:12:48;6.10;1.00
4795;DHT22;2411;47.060;15.064;2024-01-30T14:15:15;6.00;1.00
4795;DHT22;2411;47.060;15.064;2024-01-30T14:17:54;6.00;1.00
4795;DHT22;2411;47.060;15.064;2024-01-30T14:20:22;5.90;1.00
4795;DHT22;2411;47.060;15.064;2024-01-30T14:22:50;5.80;1.00
4795;DHT22;2411;47.060;15.064;2024-01-30T14:25:18;5.80;1.00
4795;DHT22;2411;47.060;15.064;2024-01-30T14:27:46;5.80;1.00
4795;DHT22;2411;47.060;15.064;2024-01-30T14:30:13;5.70;1.00
4795;DHT22;2411;47.060;15.064;2024-01-30T14:32:41;5.70;1.00
4795;DHT22;2411;47.060;15.064;2024-01-30T14:35:11;5.60;1.00
4795;DHT22;2411;47.060;15.064;2024-01-30T14:37:39;5.60;1.00
4795;DHT22;2411;47.060;15.064;2024-01-30T14:40:06;5.60;1.00
4795;DHT22;2411;47.060;15.064;2024-01-30T14:42:34;5.50;1.00
4795;DHT22;2411;47.060;15.064;2024-01-30T14:45:03;5.40;1.00
4795;DHT22;2411;47.060;15.064;2024-01-30T14:47:31;5.30;1.00
4795;DHT22;2411;47.060;15.064;2024-01-30T14:49:58;5.30;1.00
4795;DHT22;2411;47.060;15.064;2024-01-30T14:52:25;5.20;1.00
4795;DHT22;2411;47.060;15.064;2024-01-30T14:54:52;5.10;1.00
4795;DHT22;2411;47.060;15.064;2024-01-30T14:57:20;5.10;1.00
4795;DHT22;2411;47.060;15.064;2024-01-30T14:59:47;5.00;1.00
4795;DHT22;2411;47.060;15.064;2024-01-30T15:02:15;5.00;1.00
4795;DHT22;2411;47.060;15.064;2024-01-30T15:04:42;4.90;1.00
4795;DHT22;2411;47.060;15.064;2024-01-30T15:07:10;4.90;1.00
4795;DHT22;2411;47.060;15.064;2024-01-30T15:09:41;4.80;1.00
4795;DHT22;2411;47.060;15.064;2024-01-30T15:12:08;4.70;1.00
4795;DHT22;2411;47.060;15.064;2024-01-30T15:14:35;4.60;1.00
4795;DHT22;2411;47.060;15.064;2024-01-30T15:17:02;4.50;1.00
4795;DHT22;2411;47.060;15.064;2024-01-30T15:19:29;4.40;1.00
4795;DHT22;2411;47.060;15.064;2024-01-30T15:21:57;4.20;1.00
4795;DHT22;2411;47.060;15.064;2024-01-30T15:24:24;4.10;1.00
4795;DHT22;2411;47.060;15.064;2024-01-30T15:26:51;3.90;1.00
4795;DHT22;2411;47.060;15.064;2024-01-30T15:29:19;3.80;1.00
4795;DHT22;2411;47.060;15.064;2024-01-30T15:31:48;3.70;1.00
4795;DHT22;2411;47.060;15.064;2024-01-30T15:34:15;3.50;1.00
4795;DHT22;2411;47.060;15.064;2024-01-30T15:36:42;3.40;1.00
4795;DHT22;2411;47.060;15.064;2024-01-30T15:39:09;3.30;1.00
4795;DHT22;2411;47.060;15.064;2024-01-30T15:41:38;3.20;1.00
4795;DHT22;2411;47.060;15.064;2024-01-30T15:44:05;3.10;1.00
4795;DHT22;2411;47.060;15.064;2024-01-30T15:46:33;3.10;1.00
4795;DHT22;2411;47.060;15.064;2024-01-30T15:49:00;2.90;1.00
4795;DHT22;2411;47.060;15.064;2024-01-30T15:51:28;2.80;1.00
4795;DHT22;2411;47.060;15.064;2024-01-30T15:53:55;2.80;1.00
4795;DHT22;2411;47.060;15.064;2024-01-30T15:56:23;2.70;1.00
4795;DHT22;2411;47.060;15.064;2024-01-30T15:58:50;2.70;1.00
4795;DHT22;2411;47.060;15.064;2024-01-30T16:01:19;2.60;1.00
4795;DHT22;2411;47.060;15.064;2024-01-30T16:03:46;2.60;1.00
4795;DHT22;2411;47.060;15.064;2024-01-30T16:06:14;2.50;1.00
4795;DHT22;2411;47.060;15.064;2024-01-30T16:08:41;2.40;1.00
4795;DHT22;2411;47.060;15.064;2024-01-30T16:11:09;2.40;1.00
4795;DHT22;2411;47.060;15.064;2024-01-30T16:13:36;2.30;1.00